Time;durP1;ratioP1;P1;durP2;ratioP2;P2;SDS_P1;SDS_P2;PMS_P1;PMS_P2;Temp;Humidity;BMP_temperature;BMP_pressure;BME280_temperature;BME280_humidity;BME280_pressure;Samples;Min_cycle;Max_cycle;Signal;HPM_P1;HPM_P2
2020/12/18 00:01:12;;;;;;;2.93;1.37;;;14.70;99.90;;;;;;20739587;28;20261;-71
2020/12/18 00:11:20;;;;;;;0.70;0.60;;;14.80;99.90;;;;;;20741156;28;20313;-71
2020/12/18 00:21:24;;;;;;;0.37;0.37;;;14.60;99.90;;;;;;20741440;28;20315;-71
2020/12/18 00:31:27;;;;;;;0.73;0.53;;;14.60;99.90;;;;;;20738001;28;20234;-71
2020/12/18 00:41:31;;;;;;;0.93;0.63;;;14.60;99.90;;;;;;20738445;28;20190;-71
2020/12/18 00:51:33;;;;;;;0.20;0.10;;;14.60;99.90;;;;;;20735959;28;20273;-71
2020/12/18 01:01:37;;;;;;;3.40;1.60;;;14.70;99.90;;;;;;20781619;23;20729;-82
2020/12/18 01:11:39;;;;;;;0.50;0.50;;;14.80;99.90;;;;;;20820978;28;20316;-84
2020/12/18 01:21:43;;;;;;;0.70;0.63;;;14.70;99.90;;;;;;20819754;28;20214;-80
2020/12/18 01:31:45;;;;;;;0.30;0.30;;;14.80;99.90;;;;;;20743262;28;20305;-83
2020/12/18 01:41:49;;;;;;;0.20;0.00;;;14.90;99.90;;;;;;20737135;28;20288;-79
2020/12/18 01:51:54;;;;;;;1.43;0.83;;;14.70;99.90;;;;;;20736544;28;20320;-78
2020/12/18 02:01:58;;;;;;;0.20;0.10;;;14.60;99.90;;;;;;20736442;28;20310;-80
2020/12/18 02:12:02;;;;;;;0.50;0.50;;;14.60;99.90;;;;;;20735147;28;20760;-80
2020/12/18 02:22:13;;;;;;;2.73;1.23;;;14.50;99.90;;;;;;20734192;28;20282;-80
2020/12/18 02:32:16;;;;;;;0.97;0.70;;;14.40;99.90;;;;;;20749701;28;20246;-80
2020/12/18 02:42:19;;;;;;;0.40;0.40;;;14.50;99.90;;;;;;20948522;22;20723;-81
2020/12/18 02:52:23;;;;;;;0.50;0.50;;;14.40;99.90;;;;;;20813521;28;20313;-82
2020/12/18 03:02:25;;;;;;;0.63;0.63;;;14.40;99.90;;;;;;20869009;22;20287;-70
2020/12/18 03:12:28;;;;;;;0.40;0.30;;;14.30;99.90;;;;;;20908174;28;20264;-70
2020/12/18 03:22:36;;;;;;;2.50;1.03;;;14.30;99.90;;;;;;20909978;28;20725;-71
2020/12/18 03:32:39;;;;;;;0.93;0.93;;;14.30;99.90;;;;;;20904381;28;20221;-72
2020/12/18 03:42:42;;;;;;;4.27;0.93;;;14.40;99.90;;;;;;20861538;28;20288;-73
2020/12/18 03:52:45;;;;;;;0.47;0.40;;;14.40;99.90;;;;;;20824470;28;20225;-73
2020/12/18 04:02:48;;;;;;;3.03;0.67;;;14.30;99.90;;;;;;20835788;23;20293;-68
2020/12/18 04:12:51;;;;;;;0.60;0.47;;;14.40;99.90;;;;;;20823531;28;20801;-69
2020/12/18 04:22:54;;;;;;;4.27;0.97;;;14.50;99.90;;;;;;20822065;28;20191;-68
2020/12/18 04:32:57;;;;;;;0.30;0.27;;;14.40;99.90;;;;;;20821385;28;20229;-67
2020/12/18 04:43:00;;;;;;;4.37;0.47;;;14.30;99.90;;;;;;20821819;28;20194;-67
2020/12/18 04:53:04;;;;;;;0.43;0.43;;;14.30;99.90;;;;;;20799842;28;20225;-66
2020/12/18 05:03:07;;;;;;;0.50;0.33;;;14.20;99.90;;;;;;20818953;28;20305;-68
2020/12/18 05:13:10;;;;;;;0.27;0.17;;;14.20;99.90;;;;;;20818804;28;20228;-68
2020/12/18 05:23:13;;;;;;;2.03;1.00;;;14.30;99.90;;;;;;20817922;28;20634;-68
2020/12/18 05:33:19;;;;;;;0.93;0.70;;;14.40;99.90;;;;;;20804990;28;20222;-68
2020/12/18 05:43:22;;;;;;;0.50;0.40;;;14.60;99.90;;;;;;20815452;28;20283;-69
2020/12/18 05:53:26;;;;;;;0.20;0.17;;;14.50;99.90;;;;;;20815504;28;20225;-68
2020/12/18 06:03:39;;;;;;;1.60;0.93;;;14.60;99.90;;;;;;20826000;28;20220;-67
2020/12/18 06:13:42;;;;;;;0.30;0.30;;;14.70;99.90;;;;;;20831752;28;20284;-68
2020/12/18 06:23:45;;;;;;;1.30;0.93;;;14.70;99.90;;;;;;20831143;28;20214;-67
2020/12/18 06:33:53;;;;;;;0.30;0.30;;;14.70;99.90;;;;;;20829612;28;20249;-68
2020/12/18 06:43:55;;;;;;;0.37;0.37;;;14.80;99.90;;;;;;20810606;28;20248;-70
2020/12/18 06:54:12;;;;;;;0.20;0.17;;;14.70;99.90;;;;;;20824768;28;20249;-69
2020/12/18 07:04:22;;;;;;;1.13;0.90;;;14.80;99.90;;;;;;20820626;28;20279;-68
2020/12/18 07:14:27;;;;;;;0.40;0.40;;;14.90;99.90;;;;;;20819518;28;20280;-68
2020/12/18 07:24:29;;;;;;;0.47;0.47;;;14.70;99.90;;;;;;20823685;28;20222;-76
2020/12/18 07:34:33;;;;;;;2.00;0.93;;;14.80;99.90;;;;;;20822153;28;20257;-69
2020/12/18 07:44:35;;;;;;;0.67;0.67;;;14.80;99.90;;;;;;20823218;28;20195;-68
2020/12/18 07:54:39;;;;;;;6.43;0.80;;;14.90;99.90;;;;;;20803598;28;20703;-68
2020/12/18 08:04:46;;;;;;;1.20;1.03;;;15.00;99.90;;;;;;20802516;28;20340;-67
2020/12/18 08:14:50;;;;;;;1.37;0.50;;;15.10;99.90;;;;;;20800755;28;20283;-70
2020/12/18 08:24:57;;;;;;;0.50;0.50;;;15.20;99.90;;;;;;20814799;28;20309;-68
2020/12/18 08:35:01;;;;;;;0.77;0.73;;;15.20;99.90;;;;;;20817665;28;20226;-69
2020/12/18 08:45:04;;;;;;;0.20;0.10;;;15.10;99.90;;;;;;20820090;28;20285;-69
2020/12/18 08:55:08;;;;;;;0.40;0.30;;;15.20;99.90;;;;;;20719372;28;20221;-70
2020/12/18 09:05:14;;;;;;;8.67;1.17;;;15.40;99.90;;;;;;20717770;28;20385;-68
2020/12/18 09:15:23;;;;;;;0.90;0.90;;;15.40;99.90;;;;;;20735730;28;20226;-69
2020/12/18 09:25:26;;;;;;;0.53;0.53;;;15.30;99.90;;;;;;20746273;28;20281;-68
2020/12/18 09:35:30;;;;;;;0.37;0.37;;;15.60;99.90;;;;;;20815176;28;20316;-69
2020/12/18 09:45:33;;;;;;;0.33;0.33;;;15.60;99.90;;;;;;20812587;28;20217;-69
2020/12/18 09:55:37;;;;;;;1.53;1.27;;;15.70;99.90;;;;;;20812201;28;20312;-68
2020/12/18 10:05:39;;;;;;;2.03;1.03;;;15.70;99.90;;;;;;20744295;28;20602;-69
2020/12/18 10:15:43;;;;;;;0.80;0.80;;;15.80;99.90;;;;;;20731669;28;20245;-68
2020/12/18 10:25:45;;;;;;;0.93;0.93;;;15.60;99.90;;;;;;20729090;28;20286;-67
2020/12/18 10:35:49;;;;;;;4.07;0.67;;;15.70;99.90;;;;;;20730261;28;20756;-68
2020/12/18 10:45:52;;;;;;;1.20;1.13;;;15.70;99.90;;;;;;20797089;28;20220;-68
2020/12/18 10:55:55;;;;;;;0.40;0.40;;;15.60;99.90;;;;;;20826635;28;20226;-68
2020/12/18 11:06:03;;;;;;;0.67;0.60;;;15.60;99.90;;;;;;20825799;28;20281;-68
2020/12/18 11:16:06;;;;;;;0.83;0.60;;;15.60;99.90;;;;;;20824968;28;20325;-68
2020/12/18 11:26:10;;;;;;;3.50;2.27;;;15.60;99.90;;;;;;20825698;28;20242;-68
2020/12/18 11:36:14;;;;;;;1.70;1.10;;;15.70;99.90;;;;;;20804530;28;20231;-68
2020/12/18 11:46:16;;;;;;;0.37;0.37;;;15.80;99.90;;;;;;20723093;28;20292;-68
2020/12/18 11:56:20;;;;;;;0.83;0.67;;;15.80;99.90;;;;;;20738872;28;20224;-68
2020/12/18 12:06:22;;;;;;;0.87;0.87;;;15.80;99.90;;;;;;20722262;28;20706;-65
2020/12/18 12:16:32;;;;;;;0.40;0.30;;;15.80;99.90;;;;;;20721391;28;20776;-69
2020/12/18 12:26:35;;;;;;;1.40;0.90;;;15.90;99.90;;;;;;20732481;28;20628;-69
2020/12/18 12:36:38;;;;;;;0.77;0.33;;;15.90;99.90;;;;;;20818965;28;20268;-68
2020/12/18 12:46:41;;;;;;;3.97;2.53;;;15.90;99.90;;;;;;20817741;28;20190;-68
2020/12/18 12:56:44;;;;;;;1.10;1.00;;;15.90;99.90;;;;;;20800038;28;20551;-69
2020/12/18 13:06:47;;;;;;;0.83;0.63;;;16.10;99.90;;;;;;20814251;28;20222;-69
2020/12/18 13:16:51;;;;;;;0.40;0.40;;;16.20;99.90;;;;;;20815598;28;20300;-68
2020/12/18 13:26:56;;;;;;;1.37;1.27;;;16.20;99.90;;;;;;20796430;28;20198;-68
2020/12/18 13:37:05;;;;;;;0.80;0.77;;;16.40;99.90;;;;;;20780207;28;20281;-68
2020/12/18 13:47:08;;;;;;;1.27;1.00;;;16.40;99.90;;;;;;20714474;28;20762;-66
2020/12/18 13:57:11;;;;;;;1.27;0.67;;;16.40;99.90;;;;;;20731926;28;20226;-68
2020/12/18 14:07:15;;;;;;;11.40;0.90;;;16.30;99.90;;;;;;20733459;28;20218;-69
2020/12/18 14:17:19;;;;;;;0.70;0.50;;;16.10;99.90;;;;;;20698511;28;20313;-68
2020/12/18 14:27:21;;;;;;;0.50;0.47;;;16.30;99.90;;;;;;20746591;28;20199;-69
2020/12/18 14:37:27;;;;;;;1.33;1.23;;;16.20;99.90;;;;;;20777215;28;20234;-69
2020/12/18 14:47:29;;;;;;;0.43;0.40;;;16.10;99.90;;;;;;20827854;28;20205;-68
2020/12/18 14:57:33;;;;;;;0.20;0.10;;;16.10;99.90;;;;;;20810153;28;20317;-67
2020/12/18 15:07:36;;;;;;;0.40;0.30;;;16.00;99.90;;;;;;20826785;28;20230;-70
2020/12/18 15:17:40;;;;;;;0.93;0.80;;;16.00;99.90;;;;;;20825446;28;20306;-67
2020/12/18 15:27:42;;;;;;;1.50;1.13;;;16.00;99.90;;;;;;20824030;28;20190;-67
2020/12/18 15:37:48;;;;;;;0.53;0.47;;;15.80;99.90;;;;;;20823205;28;20218;-68
2020/12/18 15:47:50;;;;;;;0.60;0.60;;;15.80;99.90;;;;;;20808514;28;20667;-68
2020/12/18 15:57:54;;;;;;;0.63;0.63;;;15.80;99.90;;;;;;20808380;28;20229;-67
2020/12/18 16:24:09;;;;;;;1.07;0.50;;;15.80;99.90;;;;;;21175651;27;20523;-77
2020/12/18 16:34:12;;;;;;;0.33;0.20;;;15.90;99.90;;;;;;21177977;27;20218;-76
2020/12/18 16:44:17;;;;;;;0.53;0.40;;;15.90;99.90;;;;;;21142039;27;20546;-77
2020/12/18 16:54:19;;;;;;;1.50;0.80;;;15.70;99.90;;;;;;21176678;27;20256;-76
2020/12/18 17:04:23;;;;;;;0.43;0.43;;;15.70;99.90;;;;;;21157247;27;20191;-76
2020/12/18 17:14:25;;;;;;;1.27;0.57;;;15.60;99.90;;;;;;21173395;27;20900;-74
2020/12/18 17:24:29;;;;;;;0.80;0.80;;;15.60;99.90;;;;;;21118257;27;20191;-78
2020/12/18 17:34:31;;;;;;;0.77;0.70;;;15.70;99.90;;;;;;21073265;28;20215;-78
2020/12/18 17:44:37;;;;;;;2.53;1.83;;;15.60;99.90;;;;;;21027390;28;20875;-78
2020/12/18 17:54:39;;;;;;;0.67;0.67;;;15.60;99.90;;;;;;21030479;28;20220;-77
2020/12/18 18:04:43;;;;;;;0.60;0.60;;;15.60;99.90;;;;;;21009389;28;20200;-78
2020/12/18 18:14:47;;;;;;;1.10;0.70;;;15.60;99.90;;;;;;21083486;28;20223;-75
2020/12/18 18:24:51;;;;;;;1.30;1.20;;;15.50;99.90;;;;;;21111882;28;20203;-76
2020/12/18 18:34:54;;;;;;;3.30;2.10;;;15.60;99.90;;;;;;21111865;28;20228;-77
2020/12/18 18:44:57;;;;;;;0.67;0.47;;;15.50;99.90;;;;;;21115633;28;20191;-73
2020/12/18 18:55:02;;;;;;;0.70;0.50;;;15.50;99.90;;;;;;21071785;28;20226;-76
2020/12/18 19:05:05;;;;;;;2.60;1.37;;;15.40;99.90;;;;;;21107619;28;20705;-75
2020/12/18 19:15:08;;;;;;;0.50;0.40;;;15.50;99.90;;;;;;21105904;28;20254;-76
2020/12/18 19:25:12;;;;;;;2.13;1.80;;;15.40;99.90;;;;;;21087300;28;20704;-77
2020/12/18 19:35:14;;;;;;;0.50;0.50;;;15.30;99.90;;;;;;21100946;28;20219;-77
2020/12/18 19:45:19;;;;;;;1.50;0.53;;;15.40;99.90;;;;;;21102711;28;20195;-75
2020/12/18 19:55:21;;;;;;;1.43;1.23;;;15.30;99.90;;;;;;21103121;28;20572;-77
2020/12/18 20:05:25;;;;;;;1.47;0.87;;;15.40;99.90;;;;;;21103842;28;20202;-76
2020/12/18 20:15:29;;;;;;;0.77;0.77;;;15.40;99.90;;;;;;21103038;28;20235;-75
2020/12/18 20:25:33;;;;;;;0.33;0.33;;;15.40;99.90;;;;;;21101586;28;20215;-76
2020/12/18 20:35:35;;;;;;;2.20;1.60;;;15.40;99.90;;;;;;21063166;28;20208;-75
2020/12/18 20:45:39;;;;;;;1.37;1.27;;;15.20;99.90;;;;;;21016737;28;20203;-75
2020/12/18 20:55:42;;;;;;;1.33;0.93;;;15.00;99.90;;;;;;21008325;28;20243;-76
2020/12/18 21:05:46;;;;;;;1.90;1.30;;;14.90;99.90;;;;;;21030599;28;20203;-76
2020/12/18 21:15:48;;;;;;;1.70;1.03;;;15.00;99.90;;;;;;21032756;28;20565;-77
2020/12/18 21:25:52;;;;;;;0.87;0.67;;;15.10;99.90;;;;;;21030275;28;20199;-77
2020/12/18 21:35:56;;;;;;;0.50;0.43;;;14.80;99.90;;;;;;21030091;28;20565;-76
2020/12/18 21:45:59;;;;;;;3.23;1.67;;;14.60;99.90;;;;;;21029005;28;20204;-77
2020/12/18 21:56:02;;;;;;;0.83;0.83;;;14.40;99.90;;;;;;21028455;28;20340;-74
2020/12/18 22:06:06;;;;;;;5.13;3.07;;;14.30;99.90;;;;;;21025718;28;20200;-75
2020/12/18 22:16:09;;;;;;;0.87;0.87;;;14.20;99.90;;;;;;21043477;28;20250;-74
2020/12/18 22:26:12;;;;;;;1.30;1.20;;;14.10;99.90;;;;;;21092763;28;20199;-74
2020/12/18 22:36:15;;;;;;;4.50;1.23;;;14.10;99.90;;;;;;21112645;28;20524;-74
2020/12/18 22:46:18;;;;;;;0.57;0.57;;;13.70;99.90;;;;;;21111446;28;20234;-76
2020/12/18 22:56:21;;;;;;;1.30;1.13;;;13.50;99.90;;;;;;21110048;28;20226;-74
2020/12/18 23:06:24;;;;;;;1.80;1.43;;;13.30;99.90;;;;;;21104815;28;20191;-75
2020/12/18 23:16:27;;;;;;;3.77;2.50;;;13.30;99.90;;;;;;21107468;28;20454;-75
2020/12/18 23:26:30;;;;;;;1.67;1.17;;;13.10;99.90;;;;;;21106940;28;20195;-75
2020/12/18 23:36:33;;;;;;;1.60;0.90;;;13.10;99.90;;;;;;21123585;28;20218;-75
2020/12/18 23:46:36;;;;;;;0.97;0.60;;;13.10;99.90;;;;;;21112763;28;20192;-75
2020/12/18 23:56:39;;;;;;;1.00;0.80;;;12.90;99.90;;;;;;21103800;28;20219;-76
